sensor_id;sensor_type;location;lat;lon;timestamp;pressure;altitude;pressure_sealevel;temperature;humidity
77110;BME280;66062;52.464;16.922;2023-04-25T00:02:11;99512.44;;;8.91;78.30
77110;BME280;66062;52.464;16.922;2023-04-25T00:04:36;99505.97;;;8.94;78.53
77110;BME280;66062;52.464;16.922;2023-04-25T00:07:03;99517.56;;;8.85;77.18
77110;BME280;66062;52.464;16.922;2023-04-25T00:09:28;99511.19;;;8.78;77.59
77110;BME280;66062;52.464;16.922;2023-04-25T00:11:54;99513.13;;;8.68;78.16
77110;BME280;66062;52.464;16.922;2023-04-25T00:14:20;99513.78;;;8.70;77.14
77110;BME280;66062;52.464;16.922;2023-04-25T00:16:45;99509.00;;;8.73;76.84
77110;BME280;66062;52.464;16.922;2023-04-25T00:19:11;99504.31;;;8.67;76.74
77110;BME280;66062;52.464;16.922;2023-04-25T00:21:36;99501.41;;;8.61;76.79
77110;BME280;66062;52.464;16.922;2023-04-25T00:24:08;99510.69;;;8.56;76.84
77110;BME280;66062;52.464;16.922;2023-04-25T00:26:34;99517.00;;;8.55;76.75
77110;BME280;66062;52.464;16.922;2023-04-25T00:29:01;99517.97;;;8.54;77.23
77110;BME280;66062;52.464;16.922;2023-04-25T00:31:29;99520.44;;;8.48;77.22
77110;BME280;66062;52.464;16.922;2023-04-25T00:33:55;99524.94;;;8.47;77.63
77110;BME280;66062;52.464;16.922;2023-04-25T00:36:21;99523.53;;;8.43;77.75
77110;BME280;66062;52.464;16.922;2023-04-25T00:38:47;99523.00;;;8.40;78.00
77110;BME280;66062;52.464;16.922;2023-04-25T00:41:12;99526.81;;;8.37;77.99
77110;BME280;66062;52.464;16.922;2023-04-25T00:43:39;99527.81;;;8.36;78.74
77110;BME280;66062;52.464;16.922;2023-04-25T00:46:05;99522.94;;;8.32;78.72
77110;BME280;66062;52.464;16.922;2023-04-25T00:48:30;99529.78;;;8.34;78.93
77110;BME280;66062;52.464;16.922;2023-04-25T00:50:59;99534.16;;;8.26;79.26
77110;BME280;66062;52.464;16.922;2023-04-25T00:53:26;99526.50;;;8.23;79.21
77110;BME280;66062;52.464;16.922;2023-04-25T00:55:52;99532.19;;;8.28;79.19
77110;BME280;66062;52.464;16.922;2023-04-25T00:58:19;99524.66;;;8.23;79.52
77110;BME280;66062;52.464;16.922;2023-04-25T01:00:46;99533.63;;;8.22;79.32
77110;BME280;66062;52.464;16.922;2023-04-25T01:03:13;99529.97;;;8.23;79.79
77110;BME280;66062;52.464;16.922;2023-04-25T01:05:40;99528.00;;;8.25;79.22
77110;BME280;66062;52.464;16.922;2023-04-25T01:08:06;99527.16;;;8.25;79.40
77110;BME280;66062;52.464;16.922;2023-04-25T01:10:32;99530.66;;;8.25;79.26
77110;BME280;66062;52.464;16.922;2023-04-25T01:12:57;99530.66;;;8.25;79.82
77110;BME280;66062;52.464;16.922;2023-04-25T01:15:23;99527.63;;;8.20;79.88
77110;BME280;66062;52.464;16.922;2023-04-25T01:17:49;99529.28;;;8.21;80.13
77110;BME280;66062;52.464;16.922;2023-04-25T01:20:15;99527.31;;;8.23;79.72
77110;BME280;66062;52.464;16.922;2023-04-25T01:22:42;99531.63;;;8.24;79.48
77110;BME280;66062;52.464;16.922;2023-04-25T01:25:08;99525.09;;;8.18;80.07
77110;BME280;66062;52.464;16.922;2023-04-25T01:27:36;99525.66;;;8.22;80.50
77110;BME280;66062;52.464;16.922;2023-04-25T01:30:02;99532.41;;;8.16;80.14
77110;BME280;66062;52.464;16.922;2023-04-25T01:32:29;99529.44;;;8.20;79.61
77110;BME280;66062;52.464;16.922;2023-04-25T01:35:06;99530.88;;;8.14;80.06
77110;BME280;66062;52.464;16.922;2023-04-25T01:37:37;99531.03;;;8.12;79.87
77110;BME280;66062;52.464;16.922;2023-04-25T01:40:03;99540.13;;;8.10;80.34
77110;BME280;66062;52.464;16.922;2023-04-25T01:42:31;99534.50;;;8.13;79.98
77110;BME280;66062;52.464;16.922;2023-04-25T01:44:57;99534.22;;;8.16;80.24
77110;BME280;66062;52.464;16.922;2023-04-25T01:47:23;99539.63;;;8.06;80.71
77110;BME280;66062;52.464;16.922;2023-04-25T01:49:48;99541.72;;;8.03;81.36
77110;BME280;66062;52.464;16.922;2023-04-25T01:52:14;99533.34;;;7.98;81.95
77110;BME280;66062;52.464;16.922;2023-04-25T01:54:40;99537.31;;;7.94;81.99
77110;BME280;66062;52.464;16.922;2023-04-25T01:57:09;99542.88;;;8.00;82.31
77110;BME280;66062;52.464;16.922;2023-04-25T01:59:35;99547.34;;;8.00;82.73
77110;BME280;66062;52.464;16.922;2023-04-25T02:02:01;99547.09;;;7.93;83.41
77110;BME280;66062;52.464;16.922;2023-04-25T02:04:29;99537.63;;;7.91;83.29
77110;BME280;66062;52.464;16.922;2023-04-25T02:06:54;99544.22;;;7.87;84.09
77110;BME280;66062;52.464;16.922;2023-04-25T02:09:20;99553.44;;;7.83;84.63
77110;BME280;66062;52.464;16.922;2023-04-25T02:11:45;99546.56;;;7.90;84.25
77110;BME280;66062;52.464;16.922;2023-04-25T02:14:11;99544.50;;;7.84;84.71
77110;BME280;66062;52.464;16.922;2023-04-25T02:16:36;99549.28;;;7.80;85.22
77110;BME280;66062;52.464;16.922;2023-04-25T02:19:02;99554.34;;;7.73;86.17
77110;BME280;66062;52.464;16.922;2023-04-25T02:21:28;99555.88;;;7.76;85.65
77110;BME280;66062;52.464;16.922;2023-04-25T02:23:53;99555.31;;;7.72;85.79
77110;BME280;66062;52.464;16.922;2023-04-25T02:26:19;99557.13;;;7.72;85.71
77110;BME280;66062;52.464;16.922;2023-04-25T02:28:44;99552.25;;;7.67;86.02
77110;BME280;66062;52.464;16.922;2023-04-25T02:31:10;99547.56;;;7.61;85.86
77110;BME280;66062;52.464;16.922;2023-04-25T02:33:35;99545.44;;;7.65;85.84
77110;BME280;66062;52.464;16.922;2023-04-25T02:36:01;99546.88;;;7.59;85.68
77110;BME280;66062;52.464;16.922;2023-04-25T02:38:26;99551.88;;;7.62;85.72
77110;BME280;66062;52.464;16.922;2023-04-25T02:40:52;99549.81;;;7.56;85.59
77110;BME280;66062;52.464;16.922;2023-04-25T02:43:17;99558.78;;;7.55;86.75
77110;BME280;66062;52.464;16.922;2023-04-25T02:45:42;99542.53;;;7.58;85.91
77110;BME280;66062;52.464;16.922;2023-04-25T02:48:08;99550.94;;;7.54;85.87
77110;BME280;66062;52.464;16.922;2023-04-25T02:50:33;99550.00;;;7.45;86.46
77110;BME280;66062;52.464;16.922;2023-04-25T02:52:59;99545.69;;;7.44;87.27
77110;BME280;66062;52.464;16.922;2023-04-25T02:55:24;99545.16;;;7.41;87.30
77110;BME280;66062;52.464;16.922;2023-04-25T02:57:49;99545.28;;;7.39;87.04
77110;BME280;66062;52.464;16.922;2023-04-25T03:00:15;99540.97;;;7.28;87.64
77110;BME280;66062;52.464;16.922;2023-04-25T03:02:41;99547.53;;;7.34;87.41
77110;BME280;66062;52.464;16.922;2023-04-25T03:05:06;99543.63;;;7.28;87.78
77110;BME280;66062;52.464;16.922;2023-04-25T03:07:32;99534.31;;;7.24;87.19
77110;BME280;66062;52.464;16.922;2023-04-25T03:09:57;99543.38;;;7.22;87.38
77110;BME280;66062;52.464;16.922;2023-04-25T03:12:23;99541.16;;;7.17;88.51
77110;BME280;66062;52.464;16.922;2023-04-25T03:14:48;99546.06;;;7.12;88.17
77110;BME280;66062;52.464;16.922;2023-04-25T03:17:14;99539.25;;;7.10;88.00
77110;BME280;66062;52.464;16.922;2023-04-25T03:19:39;99542.03;;;7.08;88.53
77110;BME280;66062;52.464;16.922;2023-04-25T03:22:04;99533.50;;;7.14;88.64
77110;BME280;66062;52.464;16.922;2023-04-25T03:24:30;99539.69;;;7.05;88.77
77110;BME280;66062;52.464;16.922;2023-04-25T03:26:55;99538.53;;;7.08;89.08
77110;BME280;66062;52.464;16.922;2023-04-25T03:29:21;99537.69;;;7.07;88.67
77110;BME280;66062;52.464;16.922;2023-04-25T03:31:49;99533.53;;;7.05;89.57
77110;BME280;66062;52.464;16.922;2023-04-25T03:34:15;99540.50;;;7.06;89.48
77110;BME280;66062;52.464;16.922;2023-04-25T03:36:40;99540.50;;;7.06;88.79
77110;BME280;66062;52.464;16.922;2023-04-25T03:39:06;99538.53;;;7.08;89.23
77110;BME280;66062;52.464;16.922;2023-04-25T03:41:31;99533.22;;;7.08;89.84
77110;BME280;66062;52.464;16.922;2023-04-25T03:43:57;99539.50;;;7.07;89.15
77110;BME280;66062;52.464;16.922;2023-04-25T03:46:22;99538.28;;;7.11;88.89
77110;BME280;66062;52.464;16.922;2023-04-25T03:48:48;99537.56;;;7.09;89.44
77110;BME280;66062;52.464;16.922;2023-04-25T03:51:13;99539.50;;;7.07;89.62
77110;BME280;66062;52.464;16.922;2023-04-25T03:53:38;99546.50;;;7.08;89.38
77110;BME280;66062;52.464;16.922;2023-04-25T03:56:04;99555.41;;;7.16;91.30
77110;BME280;66062;52.464;16.922;2023-04-25T03:58:30;99557.81;;;7.10;89.61
77110;BME280;66062;52.464;16.922;2023-04-25T04:00:55;99552.47;;;7.19;88.75
77110;BME280;66062;52.464;16.922;2023-04-25T04:03:20;99553.31;;;7.20;89.03
77110;BME280;66062;52.464;16.922;2023-04-25T04:05:46;99556.81;;;7.20;89.53
77110;BME280;66062;52.464;16.922;2023-04-25T04:08:12;99553.56;;;7.26;89.33
77110;BME280;66062;52.464;16.922;2023-04-25T04:10:37;99557.47;;;7.22;89.20
77110;BME280;66062;52.464;16.922;2023-04-25T04:13:03;99553.84;;;7.23;88.88
77110;BME280;66062;52.464;16.922;2023-04-25T04:15:28;99556.78;;;7.30;88.89
77110;BME280;66062;52.464;16.922;2023-04-25T04:17:54;99560.41;;;7.29;89.84
77110;BME280;66062;52.464;16.922;2023-04-25T04:20:20;99564.69;;;7.40;88.47
77110;BME280;66062;52.464;16.922;2023-04-25T04:22:46;99567.44;;;7.48;88.41
77110;BME280;66062;52.464;16.922;2023-04-25T04:25:11;99564.66;;;7.49;88.44
77110;BME280;66062;52.464;16.922;2023-04-25T04:27:37;99561.25;;;7.66;87.10
77110;BME280;66062;52.464;16.922;2023-04-25T04:30:03;99570.56;;;7.70;87.20
77110;BME280;66062;52.464;16.922;2023-04-25T04:32:29;99568.19;;;7.67;87.62
77110;BME280;66062;52.464;16.922;2023-04-25T04:34:55;99568.47;;;7.74;87.51
77110;BME280;66062;52.464;16.922;2023-04-25T04:37:21;99572.44;;;7.88;86.86
77110;BME280;66062;52.464;16.922;2023-04-25T04:39:47;99574.50;;;7.94;85.89
77110;BME280;66062;52.464;16.922;2023-04-25T04:42:13;99570.56;;;7.98;86.14
77110;BME280;66062;52.464;16.922;2023-04-25T04:44:38;99581.97;;;8.08;85.52
77110;BME280;66062;52.464;16.922;2023-04-25T04:47:04;99581.31;;;8.24;84.29
77110;BME280;66062;52.464;16.922;2023-04-25T04:49:31;99573.13;;;8.17;84.31
77110;BME280;66062;52.464;16.922;2023-04-25T04:51:57;99571.50;;;8.24;84.01
77110;BME280;66062;52.464;16.922;2023-04-25T04:54:22;99577.22;;;8.29;83.85
77110;BME280;66062;52.464;16.922;2023-04-25T04:56:48;99579.09;;;8.46;83.09
77110;BME280;66062;52.464;16.922;2023-04-25T04:59:13;99575.13;;;8.50;82.21
77110;BME280;66062;52.464;16.922;2023-04-25T05:01:38;99569.88;;;8.58;81.92
77110;BME280;66062;52.464;16.922;2023-04-25T05:04:05;99577.09;;;8.66;82.03
77110;BME280;66062;52.464;16.922;2023-04-25T05:06:30;99573.59;;;8.66;82.02
77110;BME280;66062;52.464;16.922;2023-04-25T05:08:57;99579.06;;;8.82;81.26
77110;BME280;66062;52.464;16.922;2023-04-25T05:11:23;99580.03;;;8.81;80.36
77110;BME280;66062;52.464;16.922;2023-04-25T05:13:52;99579.34;;;8.96;79.63
77110;BME280;66062;52.464;16.922;2023-04-25T05:16:18;99576.28;;;9.09;79.27
77110;BME280;66062;52.464;16.922;2023-04-25T05:18:43;99577.91;;;9.28;78.42
77110;BME280;66062;52.464;16.922;2023-04-25T05:21:08;99581.03;;;9.23;77.75
77110;BME280;66062;52.464;16.922;2023-04-25T05:23:34;99579.72;;;9.27;78.51
77110;BME280;66062;52.464;16.922;2023-04-25T05:26:00;99580.13;;;9.40;77.49
77110;BME280;66062;52.464;16.922;2023-04-25T05:28:25;99576.06;;;9.54;76.88
77110;BME280;66062;52.464;16.922;2023-04-25T05:30:51;99585.25;;;9.60;76.52
77110;BME280;66062;52.464;16.922;2023-04-25T05:33:16;99590.38;;;9.53;75.91
77110;BME280;66062;52.464;16.922;2023-04-25T05:35:42;99591.22;;;9.54;76.27
77110;BME280;66062;52.464;16.922;2023-04-25T05:38:07;99592.78;;;9.72;75.27
77110;BME280;66062;52.464;16.922;2023-04-25T05:40:33;99580.47;;;9.71;76.92
77110;BME280;66062;52.464;16.922;2023-04-25T05:42:58;99593.44;;;10.08;73.69
77110;BME280;66062;52.464;16.922;2023-04-25T05:45:23;99584.03;;;10.30;73.83
77110;BME280;66062;52.464;16.922;2023-04-25T05:47:49;99576.56;;;10.50;72.77
77110;BME280;66062;52.464;16.922;2023-04-25T05:50:15;99588.84;;;10.26;71.90
77110;BME280;66062;52.464;16.922;2023-04-25T05:52:40;99587.53;;;10.31;72.25
77110;BME280;66062;52.464;16.922;2023-04-25T05:55:06;99584.72;;;10.48;71.46
77110;BME280;66062;52.464;16.922;2023-04-25T05:57:31;99592.28;;;10.85;71.07
77110;BME280;66062;52.464;16.922;2023-04-25T05:59:57;99590.25;;;11.20;68.86
77110;BME280;66062;52.464;16.922;2023-04-25T06:02:22;99599.44;;;11.01;68.32
77110;BME280;66062;52.464;16.922;2023-04-25T06:04:49;99598.47;;;11.02;67.75
77110;BME280;66062;52.464;16.922;2023-04-25T06:07:15;99590.78;;;10.91;68.96
77110;BME280;66062;52.464;16.922;2023-04-25T06:09:40;99598.28;;;10.95;68.11
77110;BME280;66062;52.464;16.922;2023-04-25T06:12:06;99606.78;;;10.99;68.45
77110;BME280;66062;52.464;16.922;2023-04-25T06:14:32;99597.44;;;11.27;68.31
77110;BME280;66062;52.464;16.922;2023-04-25T06:16:58;99595.91;;;10.68;69.49
77110;BME280;66062;52.464;16.922;2023-04-25T06:19:23;99600.53;;;10.42;70.83
77110;BME280;66062;52.464;16.922;2023-04-25T06:21:49;99593.44;;;10.08;70.89
77110;BME280;66062;52.464;16.922;2023-04-25T06:24:14;99608.34;;;10.27;71.19
77110;BME280;66062;52.464;16.922;2023-04-25T06:26:40;99597.53;;;10.37;70.73
77110;BME280;66062;52.464;16.922;2023-04-25T06:29:06;99607.16;;;10.21;70.89
77110;BME280;66062;52.464;16.922;2023-04-25T06:31:31;99592.44;;;10.76;71.06
77110;BME280;66062;52.464;16.922;2023-04-25T06:33:59;99588.91;;;11.32;67.33
77110;BME280;66062;52.464;16.922;2023-04-25T06:36:25;99593.22;;;11.41;66.47
77110;BME280;66062;52.464;16.922;2023-04-25T06:38:53;99586.81;;;11.58;65.87
77110;BME280;66062;52.464;16.922;2023-04-25T06:41:19;99582.69;;;12.03;64.32
77110;BME280;66062;52.464;16.922;2023-04-25T06:43:45;99589.84;;;12.41;63.19
77110;BME280;66062;52.464;16.922;2023-04-25T06:46:11;99583.38;;;11.96;64.37
77110;BME280;66062;52.464;16.922;2023-04-25T06:48:36;99582.41;;;12.20;63.53
77110;BME280;66062;52.464;16.922;2023-04-25T06:51:02;99584.88;;;11.99;64.69
77110;BME280;66062;52.464;16.922;2023-04-25T06:53:28;99586.81;;;11.66;65.74
77110;BME280;66062;52.464;16.922;2023-04-25T06:55:54;99578.66;;;12.07;65.14
77110;BME280;66062;52.464;16.922;2023-04-25T06:58:19;99585.25;;;12.27;63.14
77110;BME280;66062;52.464;16.922;2023-04-25T07:00:45;99588.66;;;12.13;63.16
77110;BME280;66062;52.464;16.922;2023-04-25T07:03:10;99585.50;;;11.62;65.11
77110;BME280;66062;52.464;16.922;2023-04-25T07:05:35;99587.47;;;11.68;65.04
77110;BME280;66062;52.464;16.922;2023-04-25T07:08:01;99591.63;;;11.87;64.58
77110;BME280;66062;52.464;16.922;2023-04-25T07:10:27;99580.47;;;11.59;65.33
77110;BME280;66062;52.464;16.922;2023-04-25T07:12:53;99576.13;;;11.66;65.40
77110;BME280;66062;52.464;16.922;2023-04-25T07:15:18;99589.47;;;11.82;64.91
77110;BME280;66062;52.464;16.922;2023-04-25T07:17:44;99594.25;;;12.34;64.72
77110;BME280;66062;52.464;16.922;2023-04-25T07:20:10;99589.19;;;12.39;62.57
77110;BME280;66062;52.464;16.922;2023-04-25T07:22:36;99592.50;;;12.41;62.69
77110;BME280;66062;52.464;16.922;2023-04-25T07:25:02;99602.78;;;11.90;64.72
77110;BME280;66062;52.464;16.922;2023-04-25T07:27:27;99596.19;;;12.09;63.28
77110;BME280;66062;52.464;16.922;2023-04-25T07:29:53;99601.97;;;12.52;62.69
77110;BME280;66062;52.464;16.922;2023-04-25T07:32:19;99592.41;;;12.80;60.77
77110;BME280;66062;52.464;16.922;2023-04-25T07:34:44;99591.88;;;12.84;61.25
77110;BME280;66062;52.464;16.922;2023-04-25T07:37:10;99594.66;;;12.91;61.17
77110;BME280;66062;52.464;16.922;2023-04-25T07:39:36;99596.63;;;13.20;59.56
77110;BME280;66062;52.464;16.922;2023-04-25T07:42:02;99597.56;;;13.27;59.76
77110;BME280;66062;52.464;16.922;2023-04-25T07:44:29;99591.69;;;13.09;59.76
77110;BME280;66062;52.464;16.922;2023-04-25T07:47:03;99595.97;;;12.72;61.51
77110;BME280;66062;52.464;16.922;2023-04-25T07:49:29;99590.31;;;13.13;59.90
77110;BME280;66062;52.464;16.922;2023-04-25T07:51:54;99583.31;;;12.66;60.92
77110;BME280;66062;52.464;16.922;2023-04-25T07:54:20;99593.13;;;12.74;60.88
77110;BME280;66062;52.464;16.922;2023-04-25T07:56:45;99596.09;;;13.02;60.61
77110;BME280;66062;52.464;16.922;2023-04-25T07:59:11;99599.69;;;13.32;58.39
77110;BME280;66062;52.464;16.922;2023-04-25T08:01:36;99603.94;;;13.26;58.97
77110;BME280;66062;52.464;16.922;2023-04-25T08:04:02;99598.88;;;12.85;59.55
77110;BME280;66062;52.464;16.922;2023-04-25T08:06:27;99603.00;;;12.73;60.50
77110;BME280;66062;52.464;16.922;2023-04-25T08:08:53;99594.56;;;12.84;59.70
77110;BME280;66062;52.464;16.922;2023-04-25T08:11:19;99606.75;;;12.64;60.36
77110;BME280;66062;52.464;16.922;2023-04-25T08:13:45;99610.72;;;12.91;59.95
77110;BME280;66062;52.464;16.922;2023-04-25T08:16:10;99598.91;;;13.46;58.79
77110;BME280;66062;52.464;16.922;2023-04-25T08:18:35;99605.28;;;13.59;58.20
77110;BME280;66062;52.464;16.922;2023-04-25T08:21:01;99605.19;;;13.53;58.43
77110;BME280;66062;52.464;16.922;2023-04-25T08:23:26;99601.72;;;13.15;58.86
77110;BME280;66062;52.464;16.922;2023-04-25T08:25:52;99607.19;;;13.36;58.41
77110;BME280;66062;52.464;16.922;2023-04-25T08:28:17;99610.38;;;13.98;56.80
77110;BME280;66062;52.464;16.922;2023-04-25T08:30:43;99614.59;;;14.73;55.07
77110;BME280;66062;52.464;16.922;2023-04-25T08:33:08;99611.63;;;14.46;55.73
77110;BME280;66062;52.464;16.922;2023-04-25T08:35:33;99609.53;;;13.98;55.20
77110;BME280;66062;52.464;16.922;2023-04-25T08:37:59;99616.63;;;14.20;57.54
77110;BME280;66062;52.464;16.922;2023-04-25T08:40:27;99616.56;;;14.64;54.91
77110;BME280;66062;52.464;16.922;2023-04-25T08:42:56;99615.50;;;14.29;56.70
77110;BME280;66062;52.464;16.922;2023-04-25T08:45:22;99615.78;;;14.70;53.50
77110;BME280;66062;52.464;16.922;2023-04-25T08:47:48;99620.06;;;14.14;55.38
77110;BME280;66062;52.464;16.922;2023-04-25T08:50:17;99618.53;;;14.55;55.17
77110;BME280;66062;52.464;16.922;2023-04-25T08:52:46;99616.25;;;14.38;55.37
77110;BME280;66062;52.464;16.922;2023-04-25T08:55:13;99617.63;;;14.48;54.46
77110;BME280;66062;52.464;16.922;2023-04-25T08:57:43;99619.16;;;14.36;54.44
77110;BME280;66062;52.464;16.922;2023-04-25T09:00:11;99623.69;;;13.92;55.15
77110;BME280;66062;52.464;16.922;2023-04-25T09:02:38;99625.16;;;13.13;58.34
77110;BME280;66062;52.464;16.922;2023-04-25T09:05:04;99628.06;;;13.03;58.58
77110;BME280;66062;52.464;16.922;2023-04-25T09:07:32;99634.59;;;12.78;59.25
77110;BME280;66062;52.464;16.922;2023-04-25T09:09:57;99636.97;;;12.73;59.90
77110;BME280;66062;52.464;16.922;2023-04-25T09:12:25;99628.00;;;12.89;59.25
77110;BME280;66062;52.464;16.922;2023-04-25T09:15:06;99647.84;;;12.71;58.46
77110;BME280;66062;52.464;16.922;2023-04-25T09:17:32;99636.25;;;13.77;56.07
77110;BME280;66062;52.464;16.922;2023-04-25T09:20:12;99650.91;;;14.69;52.99
77110;BME280;66062;52.464;16.922;2023-04-25T09:22:38;99653.72;;;14.61;52.76
77110;BME280;66062;52.464;16.922;2023-04-25T09:25:11;99651.19;;;14.95;52.01
77110;BME280;66062;52.464;16.922;2023-04-25T09:27:48;99640.69;;;15.00;51.53
77110;BME280;66062;52.464;16.922;2023-04-25T09:30:15;99642.03;;;14.53;51.99
77110;BME280;66062;52.464;16.922;2023-04-25T09:32:43;99654.69;;;14.74;52.00
77110;BME280;66062;52.464;16.922;2023-04-25T09:35:08;99656.56;;;14.59;52.94
77110;BME280;66062;52.464;16.922;2023-04-25T09:37:34;99647.59;;;15.09;50.42
77110;BME280;66062;52.464;16.922;2023-04-25T09:40:00;99644.13;;;15.15;50.30
77110;BME280;66062;52.464;16.922;2023-04-25T09:42:31;99652.47;;;14.63;51.25
77110;BME280;66062;52.464;16.922;2023-04-25T09:44:58;99652.13;;;13.49;55.55
77110;BME280;66062;52.464;16.922;2023-04-25T09:47:25;99659.84;;;13.29;56.23
77110;BME280;66062;52.464;16.922;2023-04-25T09:49:54;99658.31;;;13.12;57.82
77110;BME280;66062;52.464;16.922;2023-04-25T09:52:24;99651.13;;;13.12;57.45
77110;BME280;66062;52.464;16.922;2023-04-25T09:54:50;99654.31;;;13.08;58.87
77110;BME280;66062;52.464;16.922;2023-04-25T09:57:18;99659.66;;;13.68;55.88
77110;BME280;66062;52.464;16.922;2023-04-25T10:02:11;99657.81;;;13.68;56.23
77110;BME280;66062;52.464;16.922;2023-04-25T10:04:38;99656.16;;;13.30;56.52
77110;BME280;66062;52.464;16.922;2023-04-25T10:07:06;99656.59;;;13.11;57.26
77110;BME280;66062;52.464;16.922;2023-04-25T10:09:32;99663.44;;;12.91;57.29
77110;BME280;66062;52.464;16.922;2023-04-25T10:12:02;99669.56;;;12.54;58.06
77110;BME280;66062;52.464;16.922;2023-04-25T10:14:30;99673.88;;;12.55;56.99
77110;BME280;66062;52.464;16.922;2023-04-25T10:16:57;99676.16;;;12.66;57.10
77110;BME280;66062;52.464;16.922;2023-04-25T10:19:24;99680.03;;;12.63;56.54
77110;BME280;66062;52.464;16.922;2023-04-25T10:24:49;99679.50;;;12.99;55.84
77110;BME280;66062;52.464;16.922;2023-04-25T10:27:16;99673.13;;;13.00;55.36
77110;BME280;66062;52.464;16.922;2023-04-25T10:29:41;99668.91;;;13.28;54.95
77110;BME280;66062;52.464;16.922;2023-04-25T10:32:08;99668.47;;;13.39;54.60
77110;BME280;66062;52.464;16.922;2023-04-25T10:34:42;99673.91;;;13.83;54.00
77110;BME280;66062;52.464;16.922;2023-04-25T10:37:11;99668.72;;;13.82;53.63
77110;BME280;66062;52.464;16.922;2023-04-25T10:39:39;99673.22;;;13.66;54.30
77110;BME280;66062;52.464;16.922;2023-04-25T10:42:05;99670.94;;;13.63;54.74
77110;BME280;66062;52.464;16.922;2023-04-25T10:44:33;99672.88;;;13.55;54.71
77110;BME280;66062;52.464;16.922;2023-04-25T10:47:01;99663.53;;;13.28;53.97
77110;BME280;66062;52.464;16.922;2023-04-25T10:49:33;99666.47;;;13.18;54.32
77110;BME280;66062;52.464;16.922;2023-04-25T10:54:46;99672.78;;;12.41;55.99
77110;BME280;66062;52.464;16.922;2023-04-25T10:57:31;99676.28;;;12.03;58.08
77110;BME280;66062;52.464;16.922;2023-04-25T11:00:01;99676.81;;;11.90;58.05
77110;BME280;66062;52.464;16.922;2023-04-25T11:02:41;99665.56;;;12.11;58.75
77110;BME280;66062;52.464;16.922;2023-04-25T11:05:09;99668.97;;;12.35;58.22
77110;BME280;66062;52.464;16.922;2023-04-25T11:07:50;99664.41;;;12.98;55.68
77110;BME280;66062;52.464;16.922;2023-04-25T11:10:17;99666.81;;;13.90;52.47
77110;BME280;66062;52.464;16.922;2023-04-25T11:12:43;99666.66;;;15.57;49.33
77110;BME280;66062;52.464;16.922;2023-04-25T11:15:10;99657.06;;;17.25;45.83
77110;BME280;66062;52.464;16.922;2023-04-25T11:17:35;99658.63;;;18.31;42.20
77110;BME280;66062;52.464;16.922;2023-04-25T11:20:01;99664.09;;;19.07;41.63
77110;BME280;66062;52.464;16.922;2023-04-25T11:22:31;99649.00;;;19.24;38.63
77110;BME280;66062;52.464;16.922;2023-04-25T11:24:57;99646.13;;;19.93;37.38
77110;BME280;66062;52.464;16.922;2023-04-25T11:27:22;99648.28;;;19.35;39.38
77110;BME280;66062;52.464;16.922;2023-04-25T11:29:49;99650.75;;;18.23;39.57
77110;BME280;66062;52.464;16.922;2023-04-25T11:32:16;99643.97;;;18.01;40.77
77110;BME280;66062;52.464;16.922;2023-04-25T11:34:43;99657.19;;;16.77;43.63
77110;BME280;66062;52.464;16.922;2023-04-25T11:37:09;99662.81;;;16.00;43.38
77110;BME280;66062;52.464;16.922;2023-04-25T11:39:37;99668.56;;;15.41;45.71
77110;BME280;66062;52.464;16.922;2023-04-25T11:42:04;99680.94;;;14.28;48.12
77110;BME280;66062;52.464;16.922;2023-04-25T11:44:31;99679.09;;;14.14;49.60
77110;BME280;66062;52.464;16.922;2023-04-25T11:46:56;99672.34;;;14.18;50.81
77110;BME280;66062;52.464;16.922;2023-04-25T11:49:23;99681.59;;;14.30;50.26
77110;BME280;66062;52.464;16.922;2023-04-25T11:51:50;99678.09;;;14.00;50.65
77110;BME280;66062;52.464;16.922;2023-04-25T11:54:15;99672.53;;;13.35;52.89
77110;BME280;66062;52.464;16.922;2023-04-25T11:56:42;99679.53;;;13.36;53.91
77110;BME280;66062;52.464;16.922;2023-04-25T11:59:08;99680.13;;;13.01;53.82
77110;BME280;66062;52.464;16.922;2023-04-25T12:01:36;99686.56;;;12.92;53.95
77110;BME280;66062;52.464;16.922;2023-04-25T12:04:16;99686.56;;;12.92;55.09
77110;BME280;66062;52.464;16.922;2023-04-25T12:06:43;99684.63;;;12.77;56.17
77110;BME280;66062;52.464;16.922;2023-04-25T12:09:12;99690.13;;;13.07;55.63
77110;BME280;66062;52.464;16.922;2023-04-25T12:11:45;99696.19;;;13.01;56.56
77110;BME280;66062;52.464;16.922;2023-04-25T12:14:11;99688.53;;;12.98;56.99
77110;BME280;66062;52.464;16.922;2023-04-25T12:16:44;99688.81;;;13.03;56.25
77110;BME280;66062;52.464;16.922;2023-04-25T12:19:13;99697.16;;;13.08;54.37
77110;BME280;66062;52.464;16.922;2023-04-25T12:21:39;99698.31;;;13.36;53.58
77110;BME280;66062;52.464;16.922;2023-04-25T12:24:12;99697.00;;;13.09;54.52
77110;BME280;66062;52.464;16.922;2023-04-25T12:26:59;99703.63;;;13.21;54.04
77110;BME280;66062;52.464;16.922;2023-04-25T12:29:26;99692.84;;;13.30;54.84
77110;BME280;66062;52.464;16.922;2023-04-25T12:31:52;99706.19;;;13.38;53.88
77110;BME280;66062;52.464;16.922;2023-04-25T12:34:19;99700.00;;;12.83;55.34
77110;BME280;66062;52.464;16.922;2023-04-25T12:36:45;99706.72;;;12.49;56.93
77110;BME280;66062;52.464;16.922;2023-04-25T12:39:24;99715.09;;;12.76;56.64
77110;BME280;66062;52.464;16.922;2023-04-25T12:41:53;99717.13;;;12.74;57.60
77110;BME280;66062;52.464;16.922;2023-04-25T12:44:21;99713.22;;;13.08;58.14
77110;BME280;66062;52.464;16.922;2023-04-25T12:46:48;99707.59;;;13.86;55.46
77110;BME280;66062;52.464;16.922;2023-04-25T12:49:13;99698.81;;;14.21;54.93
77110;BME280;66062;52.464;16.922;2023-04-25T12:51:39;99707.72;;;14.51;53.01
77110;BME280;66062;52.464;16.922;2023-04-25T12:54:05;99699.63;;;14.66;52.24
77110;BME280;66062;52.464;16.922;2023-04-25T12:56:32;99700.00;;;14.33;51.77
77110;BME280;66062;52.464;16.922;2023-04-25T12:58:58;99699.56;;;14.44;52.55
77110;BME280;66062;52.464;16.922;2023-04-25T13:01:24;99699.38;;;14.61;51.60